Time,TemperatureF,DewpointF,PressureIn,WindDirection,WindDirectionDegrees,WindSpeedMPH,WindSpeedGustMPH,Humidity,HourlyPrecipIn,Conditions,Clouds,dailyrainin,SoftwareType,DateUTC
2016-09-26 00:00:00,51.1,30.5,30.46,SW,220,1.0,1.0,45,0.00,,,0.00,Wunderground v.1.12,2016-09-26 06:00:00,
2016-09-26 00:10:00,51.0,30.9,30.46,SW,220,0.0,0.0,46,0.00,,,0.00,Wunderground v.1.12,2016-09-26 06:10:00,
2016-09-26 00:15:00,50.8,30.2,30.46,SW,220,0.0,0.0,45,0.00,,,0.00,Wunderground v.1.12,2016-09-26 06:15:00,
2016-09-26 00:25:00,50.5,29.9,30.46,SW,220,0.0,0.0,45,0.00,,,0.00,Wunderground v.1.12,2016-09-26 06:25:00,
2016-09-26 00:35:00,50.1,30.1,30.46,SW,220,0.0,0.0,46,0.00,,,0.00,Wunderground v.1.12,2016-09-26 06:35:00,
2016-09-26 00:40:00,49.6,30.7,30.46,SW,220,0.0,0.0,48,0.00,,,0.00,Wunderground v.1.12,2016-09-26 06:40:00,
2016-09-26 00:50:00,49.5,30.1,30.46,SW,220,0.0,0.0,47,0.00,,,0.00,Wunderground v.1.12,2016-09-26 06:50:00,
2016-09-26 01:00:00,49.8,29.8,30.46,SW,220,0.0,0.0,46,0.00,,,0.00,Wunderground v.1.12,2016-09-26 07:00:00,
2016-09-26 01:10:00,50.2,29.1,30.46,SW,220,0.0,0.0,44,0.00,,,0.00,Wunderground v.1.12,2016-09-26 07:10:00,
2016-09-26 01:20:00,50.4,29.3,30.46,SW,220,0.0,0.0,44,0.00,,,0.00,Wunderground v.1.12,2016-09-26 07:20:00,
2016-09-26 01:30:00,49.5,29.6,30.45,SW,220,0.0,0.0,46,0.00,,,0.00,Wunderground v.1.12,2016-09-26 07:30:00,
2016-09-26 01:35:00,48.9,30.1,30.45,SW,220,0.0,0.0,48,0.00,,,0.00,Wunderground v.1.12,2016-09-26 07:35:00,
2016-09-26 01:45:00,48.2,30.4,30.44,SSW,196,1.0,1.0,50,0.00,,,0.00,Wunderground v.1.12,2016-09-26 07:45:00,
2016-09-26 01:55:00,47.3,31.0,30.44,SSW,196,0.0,0.0,53,0.00,,,0.00,Wunderground v.1.12,2016-09-26 07:55:00,
2016-09-26 02:00:00,47.4,31.1,30.45,SSW,196,0.0,0.0,53,0.00,,,0.00,Wunderground v.1.12,2016-09-26 08:00:00,
2016-09-26 02:10:00,47.7,30.9,30.45,SSW,196,0.0,0.0,52,0.00,,,0.00,Wunderground v.1.12,2016-09-26 08:10:00,
2016-09-26 02:15:00,47.6,30.8,30.44,SSW,196,0.0,0.0,52,0.00,,,0.00,Wunderground v.1.12,2016-09-26 08:15:00,
2016-09-26 02:20:00,47.6,30.8,30.44,SSW,196,0.0,0.0,52,0.00,,,0.00,Wunderground v.1.12,2016-09-26 08:20:00,
2016-09-26 02:25:00,47.6,30.8,30.44,SSW,196,0.0,0.0,52,0.00,,,0.00,Wunderground v.1.12,2016-09-26 08:25:00,
2016-09-26 02:30:00,47.7,30.4,30.44,SW,216,0.0,0.0,51,0.00,,,0.00,Wunderground v.1.12,2016-09-26 08:30:00,
2016-09-26 02:40:00,47.7,30.4,30.44,SW,216,0.0,0.0,51,0.00,,,0.00,Wunderground v.1.12,2016-09-26 08:40:00,
2016-09-26 02:45:00,48.0,30.7,30.43,SW,216,0.0,1.0,51,0.00,,,0.00,Wunderground v.1.12,2016-09-26 08:45:00,
2016-09-26 02:55:00,47.7,30.4,30.43,SW,216,1.0,1.0,51,0.00,,,0.00,Wunderground v.1.12,2016-09-26 08:55:00,
2016-09-26 03:00:00,47.1,30.8,30.43,SW,216,0.0,0.0,53,0.00,,,0.00,Wunderground v.1.12,2016-09-26 09:00:00,
2016-09-26 03:10:00,46.5,31.2,30.43,SW,216,0.0,0.0,55,0.00,,,0.00,Wunderground v.1.12,2016-09-26 09:10:00,
2016-09-26 03:20:00,46.8,31.0,30.42,SSW,206,1.0,1.0,54,0.00,,,0.00,Wunderground v.1.12,2016-09-26 09:20:00,
2016-09-26 03:25:00,47.0,30.7,30.42,SSW,206,1.0,1.0,53,0.00,,,0.00,Wunderground v.1.12,2016-09-26 09:25:00,
2016-09-26 03:35:00,47.6,30.3,30.42,SSW,206,0.0,0.0,51,0.00,,,0.00,Wunderground v.1.12,2016-09-26 09:35:00,
2016-09-26 03:45:00,48.2,30.4,30.41,SSW,206,0.0,0.0,50,0.00,,,0.00,Wunderground v.1.12,2016-09-26 09:45:00,
2016-09-26 03:50:00,48.0,30.7,30.41,SSW,206,0.0,0.0,51,0.00,,,0.00,Wunderground v.1.12,2016-09-26 09:50:00,
2016-09-26 04:00:00,47.6,30.3,30.41,SSW,206,0.0,0.0,51,0.00,,,0.00,Wunderground v.1.12,2016-09-26 10:00:00,
2016-09-26 04:10:00,47.1,30.8,30.41,SSW,206,1.0,1.0,53,0.00,,,0.00,Wunderground v.1.12,2016-09-26 10:10:00,
2016-09-26 04:15:00,46.8,31.0,30.41,SSW,206,1.0,1.0,54,0.00,,,0.00,Wunderground v.1.12,2016-09-26 10:15:00,
2016-09-26 04:25:00,46.5,31.2,30.41,SSW,206,0.0,0.0,55,0.00,,,0.00,Wunderground v.1.12,2016-09-26 10:25:00,
2016-09-26 04:30:00,46.5,31.2,30.41,SSW,206,0.0,0.0,55,0.00,,,0.00,Wunderground v.1.12,2016-09-26 10:30:00,
2016-09-26 04:40:00,46.1,30.8,30.42,SSW,203,0.0,3.0,55,0.00,,,0.00,Wunderground v.1.12,2016-09-26 10:40:00,
2016-09-26 04:45:00,46.2,31.4,30.42,SSW,206,0.0,0.0,56,0.00,,,0.00,Wunderground v.1.12,2016-09-26 10:45:00,
2016-09-26 04:55:00,46.1,31.3,30.42,SSW,198,0.0,0.0,56,0.00,,,0.00,Wunderground v.1.12,2016-09-26 10:55:00,
2016-09-26 05:00:00,46.0,30.7,30.42,SSW,198,0.0,0.0,55,0.00,,,0.00,Wunderground v.1.12,2016-09-26 11:00:00,
2016-09-26 05:10:00,46.2,30.9,30.42,SSW,199,0.0,1.0,55,0.00,,,0.00,Wunderground v.1.12,2016-09-26 11:10:00,
2016-09-26 05:15:00,46.4,30.6,30.42,SSW,199,0.0,0.0,54,0.00,,,0.00,Wunderground v.1.12,2016-09-26 11:15:00,
2016-09-26 05:25:00,46.4,30.6,30.42,SSW,199,0.0,0.0,54,0.00,,,0.00,Wunderground v.1.12,2016-09-26 11:25:00,
2016-09-26 05:35:00,45.8,31.0,30.43,N/A,-737280,0.0,0.0,56,0.00,,,0.00,Wunderground v.1.12,2016-09-26 11:35:00,
2016-09-26 05:45:00,46.1,31.3,30.43,SSW,199,1.0,1.0,56,0.00,,,0.00,Wunderground v.1.12,2016-09-26 11:45:00,
2016-09-26 05:50:00,45.8,31.0,30.43,SSW,199,1.0,1.0,56,0.00,,,0.00,Wunderground v.1.12,2016-09-26 11:50:00,
2016-09-26 05:55:00,45.8,31.0,30.43,SSW,199,0.0,0.0,56,0.00,,,0.00,Wunderground v.1.12,2016-09-26 11:55:00,
2016-09-26 06:00:00,45.8,31.0,30.43,SSW,199,0.0,0.0,56,0.00,,,0.00,Wunderground v.1.12,2016-09-26 12:00:00,
2016-09-26 06:10:00,46.2,30.9,30.43,SSW,199,0.0,0.0,55,0.00,,,0.00,Wunderground v.1.12,2016-09-26 12:10:00,
2016-09-26 06:20:00,46.4,30.6,30.43,SSW,199,0.0,0.0,54,0.00,,,0.00,Wunderground v.1.12,2016-09-26 12:20:00,
2016-09-26 06:25:00,46.7,30.9,30.43,SSW,199,0.0,0.0,54,0.00,,,0.00,Wunderground v.1.12,2016-09-26 12:25:00,
2016-09-26 06:40:00,46.5,30.7,30.41,SSW,199,0.0,0.0,54,0.00,,,0.00,Wunderground v.1.12,2016-09-26 12:40:00,
2016-09-26 06:45:00,46.7,30.9,30.45,SSW,199,0.0,0.0,54,0.00,,,0.00,Wunderground v.1.12,2016-09-26 12:45:00,
2016-09-26 06:55:00,46.8,30.6,30.45,SW,220,1.0,1.0,53,0.00,,,0.00,Wunderground v.1.12,2016-09-26 12:55:00,
2016-09-26 07:00:00,47.0,30.7,30.46,SW,219,1.0,1.0,53,0.00,,,0.00,Wunderground v.1.12,2016-09-26 13:00:00,
2016-09-26 07:10:00,46.8,31.0,30.46,SW,219,0.0,0.0,54,0.00,,,0.00,Wunderground v.1.12,2016-09-26 13:10:00,
2016-09-26 07:15:00,47.1,30.8,30.46,SW,215,0.0,0.0,53,0.00,,,0.00,Wunderground v.1.12,2016-09-26 13:15:00,
2016-09-26 07:20:00,47.7,30.4,30.46,SW,215,0.0,0.0,51,0.00,,,0.00,Wunderground v.1.12,2016-09-26 13:20:00,
2016-09-26 07:30:00,48.8,31.0,30.45,SW,216,0.0,0.0,50,0.00,,,0.00,Wunderground v.1.12,2016-09-26 13:30:00,
2016-09-26 07:40:00,52.5,31.8,30.45,SSW,203,2.0,6.0,45,0.00,,,0.00,Wunderground v.1.12,2016-09-26 13:40:00,
2016-09-26 07:50:00,50.4,31.4,30.45,SSW,208,1.0,2.0,48,0.00,,,0.00,Wunderground v.1.12,2016-09-26 13:50:00,
2016-09-26 07:55:00,51.0,32.0,30.45,SW,219,1.0,1.0,48,0.00,,,0.00,Wunderground v.1.12,2016-09-26 13:55:00,
2016-09-26 08:00:00,51.6,32.0,30.45,SSW,196,1.0,1.0,47,0.00,,,0.00,Wunderground v.1.12,2016-09-26 14:00:00,
2016-09-26 08:10:00,52.6,31.3,30.45,SSW,195,1.0,1.0,44,0.00,,,0.00,Wunderground v.1.12,2016-09-26 14:10:00,
2016-09-26 08:20:00,53.3,31.9,30.44,West,267,2.0,3.0,44,0.00,,,0.00,Wunderground v.1.12,2016-09-26 14:20:00,
2016-09-26 08:30:00,54.4,32.3,30.44,WSW,248,1.0,2.0,43,0.00,,,0.00,Wunderground v.1.12,2016-09-26 14:30:00,
2016-09-26 08:40:00,55.3,32.6,30.44,SSW,203,1.0,1.0,42,0.00,,,0.00,Wunderground v.1.12,2016-09-26 14:40:00,
2016-09-26 08:50:00,55.7,31.7,30.44,WSW,250,1.0,2.0,40,0.00,,,0.00,Wunderground v.1.12,2016-09-26 14:50:00,
2016-09-26 09:00:00,56.5,32.4,30.44,West,271,1.0,1.0,40,0.00,,,0.00,Wunderground v.1.12,2016-09-26 15:00:00,
2016-09-26 09:10:00,57.5,32.7,30.44,WNW,287,1.0,5.0,39,0.00,,,0.00,Wunderground v.1.12,2016-09-26 15:10:00,
2016-09-26 09:15:00,58.0,33.2,30.42,West,275,1.0,1.0,39,0.00,,,0.00,Wunderground v.1.12,2016-09-26 15:15:00,
2016-09-26 09:25:00,58.6,31.7,30.42,West,265,2.0,2.0,36,0.00,,,0.00,Wunderground v.1.12,2016-09-26 15:25:00,
2016-09-26 09:30:00,58.7,30.4,30.42,WNW,285,2.0,2.0,34,0.00,,,0.00,Wunderground v.1.12,2016-09-26 15:30:00,
2016-09-26 09:40:00,59.9,32.2,30.42,SSW,195,2.0,2.0,35,0.00,,,0.00,Wunderground v.1.12,2016-09-26 15:40:00,
2016-09-26 09:50:00,60.5,30.5,30.43,West,267,2.0,2.0,32,0.00,,,0.00,Wunderground v.1.12,2016-09-26 15:50:00,
2016-09-26 09:55:00,61.2,31.8,30.43,WSW,258,1.0,1.0,33,0.00,,,0.00,Wunderground v.1.12,2016-09-26 15:55:00,
2016-09-26 10:10:00,61.5,29.7,30.42,WNW,284,2.0,2.0,30,0.00,,,0.00,Wunderground v.1.12,2016-09-26 16:10:00,
2016-09-26 10:15:00,61.8,28.3,30.42,WNW,288,1.0,2.0,28,0.00,,,0.00,Wunderground v.1.12,2016-09-26 16:15:00,
2016-09-26 10:20:00,62.4,28.8,30.42,WNW,288,1.0,1.0,28,0.00,,,0.00,Wunderground v.1.12,2016-09-26 16:20:00,
2016-09-26 10:30:00,63.7,29.1,30.40,ESE,103,0.0,0.0,27,0.00,,,0.00,Wunderground v.1.12,2016-09-26 16:30:00,
2016-09-26 10:40:00,66.3,31.3,30.39,South,180,1.0,2.0,27,0.00,,,0.00,Wunderground v.1.12,2016-09-26 16:40:00,
2016-09-26 10:45:00,64.7,29.9,30.40,NE,48,1.0,1.0,27,0.00,,,0.00,Wunderground v.1.12,2016-09-26 16:45:00,
2016-09-26 10:55:00,65.0,30.2,30.40,WNW,294,0.0,0.0,27,0.00,,,0.00,Wunderground v.1.12,2016-09-26 16:55:00,
2016-09-26 11:00:00,65.6,30.7,30.39,West,270,0.0,0.0,27,0.00,,,0.00,Wunderground v.1.12,2016-09-26 17:00:00,
2016-09-26 11:10:00,66.4,32.3,30.39,South,181,1.0,1.0,28,0.00,,,0.00,Wunderground v.1.12,2016-09-26 17:10:00,
2016-09-26 11:15:00,66.4,31.4,30.37,NNW,329,1.0,1.0,27,0.00,,,0.00,Wunderground v.1.12,2016-09-26 17:15:00,
2016-09-26 11:25:00,67.4,31.3,30.18,SE,130,0.0,1.0,26,0.00,,,0.00,Wunderground v.1.12,2016-09-26 17:25:00,
2016-09-26 11:30:00,69.1,28.6,30.15,ESE,113,1.0,7.0,22,0.00,,,0.00,Wunderground v.1.12,2016-09-26 17:30:00,
2016-09-26 11:35:00,68.1,29.9,30.16,ESE,113,1.0,3.0,24,0.00,,,0.00,Wunderground v.1.12,2016-09-26 17:35:00,
2016-09-26 11:45:00,68.4,30.2,30.17,SE,136,2.0,2.0,24,0.00,,,0.00,Wunderground v.1.12,2016-09-26 17:45:00,
2016-09-26 11:50:00,68.8,29.5,30.17,SE,127,1.0,2.0,23,0.00,,,0.00,Wunderground v.1.12,2016-09-26 17:50:00,
2016-09-26 11:55:00,68.9,28.5,30.17,ESE,113,2.0,2.0,22,0.00,,,0.00,Wunderground v.1.12,2016-09-26 17:55:00,
2016-09-26 12:00:00,69.4,30.0,30.15,SSE,151,1.0,7.0,23,0.00,,,0.00,Wunderground v.1.12,2016-09-26 18:00:00,
2016-09-26 12:10:00,69.9,28.2,30.15,SSE,160,2.0,2.0,21,0.00,,,0.00,Wunderground v.1.12,2016-09-26 18:10:00,
2016-09-26 12:20:00,70.4,29.7,30.14,East,96,1.0,1.0,22,0.00,,,0.00,Wunderground v.1.12,2016-09-26 18:20:00,
2016-09-26 12:30:00,69.1,28.6,30.14,ENE,72,4.0,4.0,22,0.00,,,0.00,Wunderground v.1.12,2016-09-26 18:30:00,
2016-09-26 12:35:00,69.9,32.5,30.14,SSE,148,3.0,3.0,25,0.00,,,0.00,Wunderground v.1.12,2016-09-26 18:35:00,
2016-09-26 12:45:00,70.8,27.7,30.13,ESE,117,1.0,1.0,20,0.00,,,0.00,Wunderground v.1.12,2016-09-26 18:45:00,
2016-09-26 12:55:00,71.1,28.0,30.13,South,186,2.0,2.0,20,0.00,,,0.00,Wunderground v.1.12,2016-09-26 18:55:00,
2016-09-26 13:00:00,71.5,30.6,30.12,ENE,73,1.0,3.0,22,0.00,,,0.00,Wunderground v.1.12,2016-09-26 19:00:00,
2016-09-26 13:10:00,71.1,29.2,30.12,NE,42,1.0,1.0,21,0.00,,,0.00,Wunderground v.1.12,2016-09-26 19:10:00,
2016-09-26 13:20:00,71.6,27.1,30.12,SE,138,2.0,2.0,19,0.00,,,0.00,Wunderground v.1.12,2016-09-26 19:20:00,
2016-09-26 13:25:00,71.6,29.6,30.12,ENE,68,3.0,6.0,21,0.00,,,0.00,Wunderground v.1.12,2016-09-26 19:25:00,
2016-09-26 13:35:00,71.3,29.3,30.10,East,85,4.0,4.0,21,0.00,,,0.00,Wunderground v.1.12,2016-09-26 19:35:00,
2016-09-26 13:40:00,71.3,28.1,30.10,North,357,3.0,3.0,20,0.00,,,0.00,Wunderground v.1.12,2016-09-26 19:40:00,
2016-09-26 13:50:00,71.6,29.6,30.10,SE,127,4.0,4.0,21,0.00,,,0.00,Wunderground v.1.12,2016-09-26 19:50:00,